Impacts METAR Board INFO
IDs:

KDTW - Detroit Metro/Wayne, MI, US

Updated at: 0746 UTC 20 Nov 2017
Potential Impact None Slight Moderate High
Time19/19Z 19/20Z 19/21Z 19/22Z 19/23Z 20/00Z 20/01Z 20/02Z 20/03Z 20/04Z 20/05Z 20/06Z 20/07Z
VIS10 10 10 10 10 10 10 10 10 10 10 10 10
CIG55 60 55 45 45 37 37 150 35 35 35 120 110
CoverOVCOVCBKNOVCOVCOVCOVCOVCOVCOVCOVCOVCOVC
FltCatVFRVFRVFRVFRVFRVFRVFRVFRVFRVFRVFRVFRVFR
WX--------------------------
WDir280280270280280270270260270240230230220
WSpd16 16 13 17 14 11 11 14 9 7 7 8 9
WGst22 22 21 23 23 -- 18 20 -- -- -- -- --
Raw hourly METARs
KDTW 191853Z 28016G22KT 10SM FEW030 SCT040 OVC055 02/M04 A2986 RMK AO2 SLP110 T00221044 $
KDTW 191953Z 28016G22KT 10SM FEW035 SCT045 OVC060 02/M04 A2987 RMK AO2 SNB22E40 SLP115 P0000 T00171039 $
KDTW 192053Z 27013G21KT 10SM FEW035 SCT045 BKN055 02/M04 A2989 RMK AO2 SNB42E49 SLP122 P0000 60000 T00221044 52017 $
KDTW 192153Z 28017G23KT 10SM BKN045 OVC055 01/M06 A2991 RMK AO2 SLP129 T00111061 $
KDTW 192253Z 28014G23KT 10SM OVC045 01/M07 A2993 RMK AO2 PK WND 27026/2200 SLP132 T00061072 $
KDTW 192353Z 27011KT 10SM OVC037 00/M07 A2993 RMK AO2 SLP132 60000 T00001067 10028 20000 51013 $
KDTW 200053Z 27011G18KT 10SM OVC037 00/M07 A2997 RMK AO2 PK WND 29026/0036 SLP146 T00001072 $
KDTW 200153Z 26014G20KT 10SM SCT035 OVC150 M01/M07 A2998 RMK AO2 SLP149 T10061072 $
KDTW 200253Z 27009KT 10SM BKN035 OVC150 M01/M07 A3000 RMK AO2 SLP156 T10061072 51023 $
KDTW 200353Z 24007KT 10SM BKN035 OVC150 M01/M07 A3001 RMK AO2 SLP160 T10061067 $
KDTW 200453Z 23007KT 10SM BKN035 OVC130 M01/M06 A3002 RMK AO2 SLP164 T10111061 400391011 $
KDTW 200553Z 23008KT 10SM SCT035 OVC120 M01/M06 A3002 RMK AO2 SLP163 T10111056 10000 21011 51007 $
KDTW 200653Z 22009KT 10SM SCT035 OVC110 M01/M05 A3002 RMK AO2 SLP164 T10111050 $